Time;durP1;ratioP1;P1;durP2;ratioP2;P2;SDS_P1;SDS_P2;PMS_P1;PMS_P2;Temp;Humidity;BMP_temperature;BMP_pressure;BME280_temperature;BME280_humidity;BME280_pressure;Samples;Min_cycle;Max_cycle;Signal;HPM_P1;HPM_P2
2022/10/20 00:00:07;;;;;;;;;;;;;;;25.28;56.48;97346.88;586961;241;62719;-71
2022/10/20 00:02:34;;;;;;;;;;;;;;;25.28;56.42;97346.08;586918;241;66592;-71
2022/10/20 00:05:02;;;;;;;;;;;;;;;25.27;57.09;97349.88;586985;241;66770;-71
2022/10/20 00:07:29;;;;;;;;;;;;;;;25.26;56.18;97354.42;586994;241;65923;-77
2022/10/20 00:09:57;;;;;;;;;;;;;;;25.26;56.57;97357.11;586983;241;66832;-77
2022/10/20 00:12:24;;;;;;;;;;;;;;;25.25;56.02;97350.15;587019;241;66703;-77
2022/10/20 00:14:52;;;;;;;;;;;;;;;25.24;56.41;97351.25;587040;241;64902;-77
2022/10/20 00:17:19;;;;;;;;;;;;;;;25.23;55.59;97347.73;587012;241;66271;-77
2022/10/20 00:19:49;;;;;;;;;;;;;;;25.23;55.03;97346.94;586976;241;66219;-77
2022/10/20 00:22:17;;;;;;;;;;;;;;;25.23;56.76;97349.63;586978;241;65268;-78
2022/10/20 00:24:44;;;;;;;;;;;;;;;25.22;56.11;97348.04;587017;241;66879;-78
2022/10/20 00:27:12;;;;;;;;;;;;;;;25.22;56.57;97348.84;586991;241;66366;-78
2022/10/20 00:29:39;;;;;;;;;;;;;;;25.21;56.65;97344.55;587021;241;65089;-76
2022/10/20 00:32:07;;;;;;;;;;;;;;;25.19;55.73;97344.04;586990;241;66605;-76
2022/10/20 00:34:34;;;;;;;;;;;;;;;25.20;57.04;97350.22;586995;241;66466;-76
2022/10/20 00:37:02;;;;;;;;;;;;;;;25.19;56.70;97352.11;587021;241;65094;-76
2022/10/20 00:39:29;;;;;;;;;;;;;;;25.19;56.70;97346.73;586960;241;66931;-76
2022/10/20 00:41:57;;;;;;;;;;;;;;;25.18;56.12;97353.21;586974;241;64680;-76
2022/10/20 00:44:43;;;;;;;;;;;;;;;25.18;56.95;97355.91;586971;241;64793;-76
2022/10/20 00:47:11;;;;;;;;;;;;;;;25.17;57.53;97348.11;586977;241;64584;-78
2022/10/20 00:49:40;;;;;;;;;;;;;;;25.17;57.88;97353.48;586955;241;66615;-77
2022/10/20 00:52:07;;;;;;;;;;;;;;;25.17;57.02;97350.80;587021;241;62683;-77
2022/10/20 00:54:35;;;;;;;;;;;;;;;25.15;56.56;97339.52;586990;241;64583;-78
2022/10/20 00:57:03;;;;;;;;;;;;;;;25.15;56.70;97339.52;586964;241;64466;-77
2022/10/20 00:59:32;;;;;;;;;;;;;;;25.14;56.85;97340.59;586999;241;62827;-77
2022/10/20 01:02:01;;;;;;;;;;;;;;;25.14;57.35;97346.77;588038;241;64628;-70
2022/10/20 01:04:29;;;;;;;;;;;;;;;25.13;57.45;97336.31;588677;241;66367;-70
2022/10/20 01:06:57;;;;;;;;;;;;;;;25.13;57.06;97341.70;588666;241;65089;-70
2022/10/20 01:09:25;;;;;;;;;;;;;;;25.12;57.43;97332.01;588628;241;66863;-70
2022/10/20 01:11:54;;;;;;;;;;;;;;;25.13;57.29;97333.63;588637;241;64852;-70
2022/10/20 01:14:32;;;;;;;;;;;;;;;25.12;57.01;97334.70;588648;241;62813;-70
2022/10/20 01:17:16;;;;;;;;;;;;;;;25.11;56.95;97328.52;588427;240;66810;-71
2022/10/20 01:19:58;;;;;;;;;;;;;;;25.11;58.09;97330.42;588580;240;64257;-76
2022/10/20 01:22:43;;;;;;;;;;;;;;;25.10;57.61;97323.42;588696;241;64975;-77
2022/10/20 01:25:12;;;;;;;;;;;;;;;25.09;57.54;97327.21;588584;241;67146;-77
2022/10/20 01:27:41;;;;;;;;;;;;;;;25.08;57.57;97323.73;588649;241;66984;-77
2022/10/20 01:30:11;;;;;;;;;;;;;;;25.07;57.31;97318.63;588640;241;64851;-77
2022/10/20 01:32:40;;;;;;;;;;;;;;;25.07;57.91;97324.01;588615;241;64360;-77
2022/10/20 01:35:09;;;;;;;;;;;;;;;25.06;57.67;97320.52;588673;241;64827;-77
2022/10/20 01:37:38;;;;;;;;;;;;;;;25.06;57.40;97317.04;588481;241;62809;-77
2022/10/20 01:40:23;;;;;;;;;;;;;;;25.06;58.61;97317.84;588541;241;65123;-77
2022/10/20 01:42:52;;;;;;;;;;;;;;;25.05;58.34;97323.52;588627;241;66773;-77
2022/10/20 01:45:21;;;;;;;;;;;;;;;25.03;57.75;97321.90;588592;241;65121;-77
2022/10/20 01:47:50;;;;;;;;;;;;;;;25.02;58.39;97325.69;588645;241;67336;-77
2022/10/20 01:50:19;;;;;;;;;;;;;;;25.03;57.38;97326.48;588618;241;64857;-77
2022/10/20 01:52:47;;;;;;;;;;;;;;;25.01;58.23;97321.38;588616;241;64912;-77
2022/10/20 01:55:16;;;;;;;;;;;;;;;25.01;57.98;97321.38;588660;241;67143;-77
2022/10/20 01:57:57;;;;;;;;;;;;;;;25.01;57.38;97321.38;588609;241;66920;-77
2022/10/20 02:00:25;;;;;;;;;;;;;;;25.01;57.34;97321.38;588547;241;64852;-71
2022/10/20 02:03:12;;;;;;;;;;;;;;;25.00;57.90;97325.17;586919;241;67233;-71
2022/10/20 02:05:41;;;;;;;;;;;;;;;25.00;58.09;97332.45;586706;241;66950;-70
2022/10/20 02:08:22;;;;;;;;;;;;;;;24.99;58.97;97326.27;586880;241;62752;-71
2022/10/20 02:10:53;;;;;;;;;;;;;;;24.97;57.75;97336.51;586785;241;67079;-77
2022/10/20 02:13:21;;;;;;;;;;;;;;;24.98;57.63;97339.99;586931;241;64809;-77
2022/10/20 02:15:50;;;;;;;;;;;;;;;24.97;57.95;97347.27;586958;241;62720;-77
2022/10/20 02:18:31;;;;;;;;;;;;;;;24.96;58.68;97345.67;586932;241;67351;-78
2022/10/20 02:21:00;;;;;;;;;;;;;;;24.96;58.45;97336.78;586335;241;66634;-77
2022/10/20 02:23:29;;;;;;;;;;;;;;;24.95;58.45;97349.44;586998;241;64882;-77
2022/10/20 02:25:58;;;;;;;;;;;;;;;24.95;58.62;97345.95;586917;241;67188;-78
2022/10/20 02:28:28;;;;;;;;;;;;;;;24.94;58.15;97355.91;586934;241;66181;-71
2022/10/20 02:30:56;;;;;;;;;;;;;;;24.94;58.79;97369.35;586943;241;62767;-71
2022/10/20 02:33:24;;;;;;;;;;;;;;;24.94;57.91;97371.25;586950;241;64753;-71
2022/10/20 02:35:53;;;;;;;;;;;;;;;24.92;59.42;97366.14;586983;241;64741;-77
2022/10/20 02:38:20;;;;;;;;;;;;;;;24.92;57.95;97360.77;586860;241;62988;-77
2022/10/20 02:40:48;;;;;;;;;;;;;;;24.92;58.59;97362.66;586940;241;65079;-77
2022/10/20 02:43:15;;;;;;;;;;;;;;;24.91;60.67;97369.11;586944;241;64784;-78
2022/10/20 02:45:43;;;;;;;;;;;;;;;24.90;58.00;97362.94;586940;241;64988;-78
2022/10/20 02:48:10;;;;;;;;;;;;;;;24.90;59.38;97368.31;587008;241;66781;-78
2022/10/20 02:50:38;;;;;;;;;;;;;;;24.90;59.25;97372.89;586911;241;66841;-78
2022/10/20 02:53:06;;;;;;;;;;;;;;;24.90;59.71;97372.89;586911;241;65086;-78
2022/10/20 02:55:33;;;;;;;;;;;;;;;24.89;58.71;97369.41;586947;241;65248;-71
2022/10/20 02:58:01;;;;;;;;;;;;;;;24.88;58.19;97365.13;586951;241;65004;-70
2022/10/20 03:00:30;;;;;;;;;;;;;;;24.88;58.99;97373.20;586902;241;63642;-70
2022/10/20 03:02:57;;;;;;;;;;;;;;;24.85;58.27;97376.44;586994;241;67117;-70
2022/10/20 03:05:25;;;;;;;;;;;;;;;24.85;58.26;97373.75;586899;241;66897;-70
2022/10/20 03:07:53;;;;;;;;;;;;;;;24.85;58.83;97381.81;586936;241;64910;-70
2022/10/20 03:10:21;;;;;;;;;;;;;;;24.86;59.11;97382.64;586952;241;67081;-70
2022/10/20 03:12:51;;;;;;;;;;;;;;;24.85;60.29;97383.70;586989;241;46823;-70
2022/10/20 03:15:18;;;;;;;;;;;;;;;24.84;59.92;97390.18;586994;241;62859;-71
2022/10/20 03:17:45;;;;;;;;;;;;;;;24.82;57.96;97377.02;586878;241;64966;-71
2022/10/20 03:20:13;;;;;;;;;;;;;;;24.83;60.43;97383.19;586929;241;64768;-71
2022/10/20 03:22:40;;;;;;;;;;;;;;;24.82;59.54;97382.39;586936;241;62763;-71
2022/10/20 03:25:08;;;;;;;;;;;;;;;24.82;59.75;97393.14;586900;241;64934;-70
2022/10/20 03:27:35;;;;;;;;;;;;;;;24.81;59.76;97391.55;586975;241;66775;-70
2022/10/20 03:30:03;;;;;;;;;;;;;;;24.81;59.04;97388.86;586943;241;62720;-70
2022/10/20 03:32:31;;;;;;;;;;;;;;;24.80;60.28;97384.59;586903;241;64890;-70
2022/10/20 03:34:59;;;;;;;;;;;;;;;24.79;60.63;97389.14;586971;241;64004;-70
2022/10/20 03:37:26;;;;;;;;;;;;;;;24.78;59.07;97390.23;586938;241;62645;-70
2022/10/20 03:39:54;;;;;;;;;;;;;;;24.78;59.83;97398.30;586963;241;64778;-70
2022/10/20 03:42:21;;;;;;;;;;;;;;;24.78;60.69;97395.61;586933;241;67177;-70
2022/10/20 03:44:49;;;;;;;;;;;;;;;24.77;59.05;97390.51;586926;241;63900;-70
2022/10/20 03:47:16;;;;;;;;;;;;;;;24.77;59.79;97401.26;586915;241;67109;-70
2022/10/20 03:49:44;;;;;;;;;;;;;;;24.76;59.74;97395.09;586951;241;66855;-70
2022/10/20 03:52:11;;;;;;;;;;;;;;;24.75;60.39;97398.88;586914;241;64923;-70
2022/10/20 03:54:39;;;;;;;;;;;;;;;24.75;60.11;97406.94;586993;241;67132;-70
2022/10/20 03:57:07;;;;;;;;;;;;;;;24.76;59.59;97415.80;586970;241;66746;-70
2022/10/20 03:59:34;;;;;;;;;;;;;;;24.74;59.76;97418.75;586917;241;62871;-70
2022/10/20 04:02:02;;;;;;;;;;;;;;;24.74;59.88;97417.96;586963;241;64578;-70
2022/10/20 04:04:34;;;;;;;;;;;;;;;24.73;60.17;97416.38;586969;241;66885;-70
2022/10/20 04:06:59;;;;;;;;;;;;;;;24.72;60.65;97409.41;586836;241;64952;-70
2022/10/20 04:09:27;;;;;;;;;;;;;;;24.72;60.32;97423.64;586954;241;67336;-70
2022/10/20 04:11:54;;;;;;;;;;;;;;;24.71;61.05;97411.27;586903;241;67859;-69
2022/10/20 04:14:21;;;;;;;;;;;;;;;24.71;60.41;97407.78;586956;241;64898;-69
2022/10/20 04:16:52;;;;;;;;;;;;;;;24.71;60.01;97415.84;586948;241;64666;-69
2022/10/20 04:19:19;;;;;;;;;;;;;;;24.70;59.67;97416.95;586979;241;66718;-70
2022/10/20 04:21:47;;;;;;;;;;;;;;;24.70;61.60;97427.70;586883;241;62790;-71
2022/10/20 04:24:14;;;;;;;;;;;;;;;24.70;60.64;97427.70;587008;241;64604;-71
2022/10/20 04:26:42;;;;;;;;;;;;;;;24.69;59.98;97426.08;586909;241;64583;-71
2022/10/20 04:29:09;;;;;;;;;;;;;;;24.68;60.44;97433.34;587029;241;63824;-71
2022/10/20 04:31:37;;;;;;;;;;;;;;;24.67;59.89;97429.06;586963;241;64631;-71
2022/10/20 04:34:04;;;;;;;;;;;;;;;24.67;60.90;97423.69;586958;241;64603;-71
2022/10/20 04:36:32;;;;;;;;;;;;;;;24.66;59.42;97422.07;586980;241;64920;-71
2022/10/20 04:38:59;;;;;;;;;;;;;;;24.67;61.06;97422.89;586831;241;67048;-71
2022/10/20 04:41:27;;;;;;;;;;;;;;;24.65;60.88;97420.48;586998;241;66682;-71
2022/10/20 04:43:54;;;;;;;;;;;;;;;24.65;62.29;97420.48;586982;241;65182;-71
2022/10/20 04:46:22;;;;;;;;;;;;;;;24.64;61.34;97413.52;586926;241;66822;-71
2022/10/20 04:48:49;;;;;;;;;;;;;;;24.64;61.89;97424.27;586950;241;66736;-71
2022/10/20 04:51:16;;;;;;;;;;;;;;;24.63;62.32;97432.59;586929;241;62848;-71
2022/10/20 04:53:44;;;;;;;;;;;;;;;24.63;61.49;97443.34;586921;241;64904;-71
2022/10/20 04:56:18;;;;;;;;;;;;;;;24.62;59.37;97442.55;586979;241;65364;-71
2022/10/20 04:58:52;;;;;;;;;;;;;;;24.61;59.91;97451.70;586926;241;62508;-71
2022/10/20 05:01:21;;;;;;;;;;;;;;;24.63;61.60;97449.52;586864;241;67173;-71
2022/10/20 05:03:48;;;;;;;;;;;;;;;24.62;62.02;97447.13;586842;241;67178;-71
2022/10/20 05:06:23;;;;;;;;;;;;;;;24.62;60.14;97452.50;586799;241;64885;-70
2022/10/20 05:08:51;;;;;;;;;;;;;;;24.61;61.33;97462.45;587012;241;64878;-71
2022/10/20 05:11:19;;;;;;;;;;;;;;;24.62;60.70;97466.73;587006;241;64867;-71
2022/10/20 05:13:47;;;;;;;;;;;;;;;24.60;60.56;97468.89;586954;241;63035;-71
2022/10/20 05:16:16;;;;;;;;;;;;;;;24.62;61.91;97463.25;586968;241;64606;-71
2022/10/20 05:18:44;;;;;;;;;;;;;;;24.62;60.42;97476.69;586904;241;67041;-71
2022/10/20 05:21:19;;;;;;;;;;;;;;;24.61;62.96;97478.58;586920;241;65211;-71
2022/10/20 05:23:47;;;;;;;;;;;;;;;24.63;62.21;97486.34;586981;241;67304;-72
2022/10/20 05:26:16;;;;;;;;;;;;;;;24.62;61.70;97482.06;586923;241;66878;-70
2022/10/20 05:28:45;;;;;;;;;;;;;;;24.62;61.78;97490.12;586879;241;64229;-70
2022/10/20 05:31:13;;;;;;;;;;;;;;;24.62;61.93;97490.12;586759;241;64979;-70
2022/10/20 05:33:42;;;;;;;;;;;;;;;24.63;61.33;97497.09;586959;241;65839;-76
2022/10/20 05:36:10;;;;;;;;;;;;;;;24.63;61.97;97497.09;586901;241;64944;-70
2022/10/20 05:38:39;;;;;;;;;;;;;;;24.63;61.04;97507.84;586948;241;64904;-71
2022/10/20 05:41:11;;;;;;;;;;;;;;;24.63;61.28;97513.21;586957;241;66896;-70
2022/10/20 05:43:39;;;;;;;;;;;;;;;24.62;60.83;97512.42;586824;241;64865;-71
2022/10/20 05:46:07;;;;;;;;;;;;;;;24.64;60.90;97518.32;586901;241;64874;-71
2022/10/20 05:48:35;;;;;;;;;;;;;;;24.63;58.39;97515.91;586960;241;64890;-71
2022/10/20 05:51:09;;;;;;;;;;;;;;;24.64;61.59;97521.00;586947;241;62839;-74
2022/10/20 05:53:37;;;;;;;;;;;;;;;24.62;56.73;97520.48;586947;241;64969;-74
2022/10/20 05:56:05;;;;;;;;;;;;;;;24.62;57.78;97527.75;586873;241;66906;-77
2022/10/20 05:58:32;;;;;;;;;;;;;;;24.62;58.81;97530.43;586891;241;65074;-79
2022/10/20 06:01:15;;;;;;;;;;;;;;;24.61;59.88;97535.02;586843;241;67310;-78
2022/10/20 06:03:40;;;;;;;;;;;;;;;24.62;59.13;97549.24;586877;241;66615;-72
2022/10/20 06:06:09;;;;;;;;;;;;;;;24.63;58.41;97540.09;586997;241;45010;-78
2022/10/20 06:08:37;;;;;;;;;;;;;;;24.62;60.35;97539.29;586913;241;65827;-77
2022/10/20 06:11:05;;;;;;;;;;;;;;;24.63;60.86;97550.84;586876;241;65035;-74
2022/10/20 06:13:33;;;;;;;;;;;;;;;24.62;59.82;97560.79;586952;241;64963;-77
2022/10/20 06:16:04;;;;;;;;;;;;;;;24.63;60.56;97566.96;586890;241;67135;-76
2022/10/20 06:18:32;;;;;;;;;;;;;;;24.62;62.62;97562.68;586923;241;64884;-74
2022/10/20 06:21:00;;;;;;;;;;;;;;;24.61;62.58;97561.05;586226;241;64903;-79
2022/10/20 06:23:28;;;;;;;;;;;;;;;24.61;60.99;97563.75;586823;241;67301;-79
2022/10/20 06:25:57;;;;;;;;;;;;;;;24.62;60.55;97576.12;581353;241;67402;-76
2022/10/20 06:28:24;;;;;;;;;;;;;;;24.62;61.45;97565.37;578463;244;65282;-74
2022/10/20 06:30:52;;;;;;;;;;;;;;;24.63;60.88;97577.71;582290;241;67798;-73
2022/10/20 06:33:19;;;;;;;;;;;;;;;24.63;59.94;97575.82;586870;241;66922;-75
2022/10/20 06:35:47;;;;;;;;;;;;;;;24.64;60.20;97585.50;586777;241;65925;-76
2022/10/20 06:38:14;;;;;;;;;;;;;;;24.64;60.24;97582.81;577788;242;68276;-73
2022/10/20 06:40:42;;;;;;;;;;;;;;;24.65;61.91;97587.09;577686;245;67252;-74
2022/10/20 06:43:09;;;;;;;;;;;;;;;24.65;59.85;97597.84;577729;245;65184;-75
2022/10/20 06:45:37;;;;;;;;;;;;;;;24.67;60.06;97597.58;577700;245;67159;-74
2022/10/20 06:48:04;;;;;;;;;;;;;;;24.67;61.76;97601.06;577639;245;66865;-74
2022/10/20 06:50:33;;;;;;;;;;;;;;;24.68;61.84;97602.66;577636;245;64853;-77
2022/10/20 06:53:00;;;;;;;;;;;;;;;24.69;62.72;97603.45;577711;245;64975;-78
2022/10/20 06:55:28;;;;;;;;;;;;;;;24.68;61.12;97604.55;577645;245;64640;-76
2022/10/20 06:57:55;;;;;;;;;;;;;;;24.68;60.03;97608.03;577650;245;62768;-76
2022/10/20 07:00:23;;;;;;;;;;;;;;;24.68;60.02;97607.23;577480;245;64862;-76
2022/10/20 07:02:50;;;;;;;;;;;;;;;24.69;60.65;97608.83;577504;245;64728;-76
2022/10/20 07:05:18;;;;;;;;;;;;;;;24.68;61.97;97605.34;577573;245;62826;-76
2022/10/20 07:07:46;;;;;;;;;;;;;;;24.68;62.89;97608.03;577584;245;67095;-73
2022/10/20 07:10:13;;;;;;;;;;;;;;;24.67;60.94;97609.13;577624;245;64866;-73
2022/10/20 07:12:41;;;;;;;;;;;;;;;24.68;63.40;97609.92;577703;245;63259;-77
2022/10/20 07:15:09;;;;;;;;;;;;;;;24.66;55.06;97610.19;577707;245;67083;-78
2022/10/20 07:17:36;;;;;;;;;;;;;;;24.71;59.49;97617.42;577681;245;66646;-78
2022/10/20 07:20:04;;;;;;;;;;;;;;;24.73;58.43;97615.27;577642;245;64895;-75
2022/10/20 07:22:32;;;;;;;;;;;;;;;24.75;59.93;97619.28;577694;245;67197;-79
2022/10/20 07:25:04;;;;;;;;;;;;;;;24.76;58.35;97612.80;577650;245;67216;-81
2022/10/20 07:27:29;;;;;;;;;;;;;;;24.78;59.17;97620.60;577574;245;65307;-77
2022/10/20 07:29:56;;;;;;;;;;;;;;;24.79;60.12;97608.76;577668;245;67054;-80
2022/10/20 07:32:23;;;;;;;;;;;;;;;24.79;60.21;97606.07;577606;245;66924;-76
2022/10/20 07:34:51;;;;;;;;;;;;;;;24.80;59.17;97605.80;577763;245;64906;-75
2022/10/20 07:37:18;;;;;;;;;;;;;;;24.81;60.86;97606.59;577480;245;67100;-77
2022/10/20 07:39:46;;;;;;;;;;;;;;;24.81;60.30;97601.22;577382;245;66664;-77
2022/10/20 07:42:13;;;;;;;;;;;;;;;24.81;58.84;97601.22;577755;245;64993;-75
2022/10/20 07:44:41;;;;;;;;;;;;;;;24.83;58.86;97604.44;577679;245;66852;-74
2022/10/20 07:47:08;;;;;;;;;;;;;;;24.83;60.42;97609.81;577712;245;66956;-75
2022/10/20 07:49:36;;;;;;;;;;;;;;;24.84;60.16;97599.86;577718;245;64915;-77
2022/10/20 07:52:03;;;;;;;;;;;;;;;24.84;57.75;97607.92;577534;245;67467;-76
2022/10/20 07:54:31;;;;;;;;;;;;;;;24.84;56.82;97606.03;577647;245;66875;-75
2022/10/20 07:56:58;;;;;;;;;;;;;;;24.84;56.41;97608.72;577658;245;64911;-75
2022/10/20 07:59:27;;;;;;;;;;;;;;;24.86;55.96;97603.08;577688;245;67975;-75
2022/10/20 08:01:54;;;;;;;;;;;;;;;24.86;58.65;97598.49;577611;245;64912;-76
2022/10/20 08:04:22;;;;;;;;;;;;;;;24.87;60.22;97596.60;577690;245;62940;-75
2022/10/20 08:06:49;;;;;;;;;;;;;;;24.86;56.45;97609.25;577642;245;64948;-75
2022/10/20 08:09:17;;;;;;;;;;;;;;;24.87;57.65;97610.84;577632;245;64859;-75
2022/10/20 08:11:44;;;;;;;;;;;;;;;24.88;58.61;97617.84;577549;245;63780;-75
2022/10/20 08:14:12;;;;;;;;;;;;;;;24.89;58.73;97607.88;577661;245;67132;-72
2022/10/20 08:16:39;;;;;;;;;;;;;;;24.87;57.61;97616.22;577683;245;67771;-74
2022/10/20 08:19:07;;;;;;;;;;;;;;;24.84;56.11;97611.41;577729;245;64910;-74
2022/10/20 08:21:34;;;;;;;;;;;;;;;24.83;57.52;97609.81;577620;245;67365;-73
2022/10/20 08:24:02;;;;;;;;;;;;;;;24.83;58.22;97608.98;577737;245;67062;-72
2022/10/20 08:26:30;;;;;;;;;;;;;;;24.81;55.45;97611.98;577754;245;63712;-74
2022/10/20 08:28:57;;;;;;;;;;;;;;;24.80;56.91;97610.38;577636;245;68055;-74
2022/10/20 08:31:25;;;;;;;;;;;;;;;24.81;57.10;97611.98;577781;245;64333;-76
2022/10/20 08:33:52;;;;;;;;;;;;;;;24.79;58.61;97609.55;577702;245;63114;-76
2022/10/20 08:36:20;;;;;;;;;;;;;;;24.79;57.66;97619.52;577668;245;64660;-76
2022/10/20 08:38:48;;;;;;;;;;;;;;;24.79;60.15;97614.13;577695;245;65030;-78
2022/10/20 08:41:17;;;;;;;;;;;;;;;24.78;59.31;97613.34;577789;245;63092;-77
2022/10/20 08:43:45;;;;;;;;;;;;;;;24.77;57.98;97609.05;577619;245;66689;-75
2022/10/20 08:46:18;;;;;;;;;;;;;;;24.77;59.18;97602.85;577719;245;66693;-79
2022/10/20 08:48:46;;;;;;;;;;;;;;;24.77;58.64;97602.85;577713;245;65443;-79
2022/10/20 08:51:21;;;;;;;;;;;;;;;24.76;58.19;97598.57;578507;242;66830;-81
2022/10/20 08:53:50;;;;;;;;;;;;;;;24.77;58.52;97594.79;579657;242;64873;-75
2022/10/20 08:56:19;;;;;;;;;;;;;;;24.78;56.57;97599.09;578026;242;65098;-76
2022/10/20 08:58:47;;;;;;;;;;;;;;;24.80;56.06;97596.94;577521;242;66788;-75
2022/10/20 09:01:16;;;;;;;;;;;;;;;24.79;54.40;97593.42;577982;245;66761;-74
2022/10/20 09:03:44;;;;;;;;;;;;;;;24.81;56.89;97590.47;578551;243;65203;-74
2022/10/20 09:06:15;;;;;;;;;;;;;;;24.81;57.70;97595.84;579666;241;67290;-75
2022/10/20 09:08:43;;;;;;;;;;;;;;;24.80;57.92;97603.11;578788;243;66897;-78
2022/10/20 09:11:18;;;;;;;;;;;;;;;24.79;57.84;97598.80;579612;241;65091;-79
2022/10/20 09:13:46;;;;;;;;;;;;;;;24.79;57.47;97598.00;580756;241;67144;-78
2022/10/20 09:16:23;;;;;;;;;;;;;;;24.80;58.63;97599.63;578661;245;67230;-80
2022/10/20 09:18:51;;;;;;;;;;;;;;;24.79;58.50;97604.17;578628;243;64963;-76
2022/10/20 09:21:23;;;;;;;;;;;;;;;24.79;59.57;97601.48;578674;244;67470;-74
2022/10/20 09:23:53;;;;;;;;;;;;;;;24.79;58.23;97603.38;578722;245;64932;-79
2022/10/20 09:26:22;;;;;;;;;;;;;;;24.78;57.52;97605.27;581264;241;62947;-79
2022/10/20 09:28:51;;;;;;;;;;;;;;;24.78;56.49;97613.34;582239;243;64890;-80
2022/10/20 09:31:26;;;;;;;;;;;;;;;24.79;57.59;97620.30;582280;243;66949;-78
2022/10/20 09:33:53;;;;;;;;;;;;;;;24.79;58.15;97614.13;581282;243;65217;-79
2022/10/20 09:36:21;;;;;;;;;;;;;;;24.78;56.55;97618.71;582339;243;67161;-76
2022/10/20 09:38:50;;;;;;;;;;;;;;;24.78;58.96;97624.09;582262;243;66889;-78
2022/10/20 09:41:22;;;;;;;;;;;;;;;24.79;60.67;97619.52;582245;243;65067;-76
2022/10/20 09:43:52;;;;;;;;;;;;;;;24.77;59.72;97618.98;582100;243;64993;-77
2022/10/20 09:46:21;;;;;;;;;;;;;;;24.76;60.50;97620.08;582090;243;66431;-75
2022/10/20 09:48:50;;;;;;;;;;;;;;;24.75;61.42;97618.48;582209;243;62801;-78
2022/10/20 09:51:22;;;;;;;;;;;;;;;24.73;62.47;97605.31;582387;243;67233;-76
2022/10/20 09:53:51;;;;;;;;;;;;;;;24.73;61.45;97609.89;582021;243;67333;-72
2022/10/20 09:56:26;;;;;;;;;;;;;;;24.72;61.01;97608.30;582274;243;62881;-77
2022/10/20 09:58:54;;;;;;;;;;;;;;;24.71;59.39;97609.36;582264;243;67109;-76
2022/10/20 10:01:22;;;;;;;;;;;;;;;24.72;62.22;97611.78;581471;243;64964;-75
2022/10/20 10:03:51;;;;;;;;;;;;;;;24.73;63.02;97605.31;580613;244;66160;-76
2022/10/20 10:06:21;;;;;;;;;;;;;;;24.71;61.93;97604.78;580310;244;64900;-76
2022/10/20 10:08:48;;;;;;;;;;;;;;;24.71;62.40;97609.36;579787;244;66978;-73
2022/10/20 10:11:17;;;;;;;;;;;;;;;24.71;61.51;97607.47;580541;244;65330;-78
2022/10/20 10:13:46;;;;;;;;;;;;;;;24.73;63.69;97604.52;580558;244;66757;-78
2022/10/20 10:16:15;;;;;;;;;;;;;;;24.72;62.29;97597.55;580481;244;64806;-79
2022/10/20 10:18:44;;;;;;;;;;;;;;;24.72;62.14;97597.55;580116;244;64617;-73
2022/10/20 10:21:14;;;;;;;;;;;;;;;24.72;61.65;97592.97;579896;244;67625;-77
2022/10/20 10:23:58;;;;;;;;;;;;;;;24.71;55.50;97590.55;580572;244;67105;-75
2022/10/20 10:26:36;;;;;;;;;;;;;;;24.76;52.96;97606.63;580672;244;64856;-74
2022/10/20 10:29:04;;;;;;;;;;;;;;;24.78;52.70;97597.20;580346;244;67127;-78
2022/10/20 10:31:32;;;;;;;;;;;;;;;24.83;55.88;97614.36;580635;244;66930;-77
2022/10/20 10:34:04;;;;;;;;;;;;;;;24.83;54.06;97598.23;580577;244;65205;-76
2022/10/20 10:36:36;;;;;;;;;;;;;;;24.84;55.27;97597.97;579241;244;67157;-78
2022/10/20 10:39:04;;;;;;;;;;;;;;;24.85;54.78;97596.08;580569;244;64840;-78
2022/10/20 10:41:34;;;;;;;;;;;;;;;24.84;55.62;97595.28;580623;244;66267;-75
2022/10/20 10:44:12;;;;;;;;;;;;;;;24.86;56.41;97590.43;580539;244;67077;-77
2022/10/20 10:46:40;;;;;;;;;;;;;;;24.86;55.61;97592.32;580534;244;67947;-73
2022/10/20 10:49:26;;;;;;;;;;;;;;;24.86;55.56;97573.50;580580;244;65087;-78
2022/10/20 10:51:58;;;;;;;;;;;;;;;24.86;53.85;97571.61;580511;244;67352;-78
2022/10/20 10:54:37;;;;;;;;;;;;;;;24.87;55.92;97569.72;580569;244;64838;-70
2022/10/20 10:57:18;;;;;;;;;;;;;;;24.87;54.99;97567.83;580550;244;65384;-74
2022/10/20 10:59:47;;;;;;;;;;;;;;;24.86;55.52;97563.55;577195;244;65954;-75
2022/10/20 11:02:32;;;;;;;;;;;;;;;24.88;55.28;97566.77;580654;244;66672;-75
2022/10/20 11:05:01;;;;;;;;;;;;;;;24.88;55.17;97566.77;580227;244;65345;-74
2022/10/20 11:07:33;;;;;;;;;;;;;;;24.87;54.33;97562.45;580120;244;67241;-68
2022/10/20 11:10:11;;;;;;;;;;;;;;;24.88;56.75;97561.38;580318;244;65169;-69
2022/10/20 11:12:56;;;;;;;;;;;;;;;24.87;56.05;97556.28;575559;245;65167;-68
2022/10/20 11:15:27;;;;;;;;;;;;;;;24.88;55.71;97550.62;580616;244;65830;-69
2022/10/20 11:17:59;;;;;;;;;;;;;;;24.89;54.69;97557.60;580646;244;66976;-68
2022/10/20 11:20:34;;;;;;;;;;;;;;;24.90;54.68;97556.50;580617;244;65181;-71
2022/10/20 11:23:20;;;;;;;;;;;;;;;24.93;54.55;97547.87;580426;244;67332;-72
2022/10/20 11:25:49;;;;;;;;;;;;;;;24.94;53.60;97559.45;580639;244;66899;-73
2022/10/20 11:28:27;;;;;;;;;;;;;;;24.95;52.50;97548.39;580663;244;62695;-73
2022/10/20 11:30:57;;;;;;;;;;;;;;;24.98;55.36;97549.72;577748;244;64890;-66
2022/10/20 11:33:27;;;;;;;;;;;;;;;24.96;52.59;97547.33;580646;244;66958;-71
2022/10/20 11:35:56;;;;;;;;;;;;;;;24.96;55.68;97552.70;580386;244;62844;-72
2022/10/20 11:38:36;;;;;;;;;;;;;;;24.97;56.04;97553.50;580370;244;48283;-72
2022/10/20 11:41:05;;;;;;;;;;;;;;;24.97;56.41;97553.50;580665;244;67260;-74
2022/10/20 11:43:34;;;;;;;;;;;;;;;24.96;54.07;97555.39;580665;244;65054;-72
2022/10/20 11:46:05;;;;;;;;;;;;;;;24.97;54.10;97558.88;580640;244;51503;-72
2022/10/20 11:48:40;;;;;;;;;;;;;;;24.97;53.79;97556.19;580568;244;67112;-70
2022/10/20 11:51:09;;;;;;;;;;;;;;;24.98;52.86;97558.58;580613;244;64449;-72
2022/10/20 11:53:38;;;;;;;;;;;;;;;24.98;53.51;97557.78;580738;244;64966;-69
2022/10/20 11:56:13;;;;;;;;;;;;;;;24.99;55.08;97554.00;580370;244;64855;-72
2022/10/20 11:58:45;;;;;;;;;;;;;;;24.99;55.56;97559.38;580556;244;65299;-72
2022/10/20 12:01:20;;;;;;;;;;;;;;;24.97;55.68;97562.36;580575;244;67864;-72
2022/10/20 12:03:58;;;;;;;;;;;;;;;24.97;54.98;97565.05;580656;244;66887;-72
2022/10/20 12:06:35;;;;;;;;;;;;;;;24.97;54.34;97562.36;580525;244;45033;-68
2022/10/20 12:09:17;;;;;;;;;;;;;;;24.99;55.42;97560.20;580598;244;64914;-66
2022/10/20 12:12:01;;;;;;;;;;;;;;;24.97;54.23;97556.98;577273;244;64841;-67
2022/10/20 12:14:39;;;;;;;;;;;;;;;24.98;54.99;97557.78;580642;244;65217;-72
2022/10/20 12:17:20;;;;;;;;;;;;;;;24.98;54.95;97552.41;580649;244;65849;-67
2022/10/20 12:19:49;;;;;;;;;;;;;;;24.96;57.29;97550.02;580673;244;66758;-67
2022/10/20 12:22:19;;;;;;;;;;;;;;;24.95;54.60;97551.08;580021;244;65104;-67
2022/10/20 12:24:51;;;;;;;;;;;;;;;24.94;58.45;97546.00;580592;244;65007;-67
2022/10/20 12:27:24;;;;;;;;;;;;;;;24.92;57.28;97542.79;580652;244;67367;-67
2022/10/20 12:29:53;;;;;;;;;;;;;;;24.90;56.49;97543.06;580561;244;62893;-67
2022/10/20 12:32:38;;;;;;;;;;;;;;;24.89;59.60;97538.78;580680;244;67014;-68
2022/10/20 12:35:13;;;;;;;;;;;;;;;24.89;58.34;97546.05;580637;244;67106;-75
2022/10/20 12:37:41;;;;;;;;;;;;;;;24.88;58.23;97545.25;580643;244;65320;-73
2022/10/20 12:40:11;;;;;;;;;;;;;;;24.86;56.99;97531.28;580643;242;67132;-73
2022/10/20 12:42:44;;;;;;;;;;;;;;;24.86;57.48;97533.98;580719;244;66684;-75
2022/10/20 12:45:11;;;;;;;;;;;;;;;24.85;59.66;97548.48;580503;243;64889;-75
2022/10/20 12:47:40;;;;;;;;;;;;;;;24.83;60.59;97539.92;580689;244;67229;-75
2022/10/20 12:50:09;;;;;;;;;;;;;;;24.81;58.24;97537.50;580477;244;66809;-75
2022/10/20 12:52:38;;;;;;;;;;;;;;;24.82;57.16;97543.67;580308;244;64910;-75
2022/10/20 12:55:09;;;;;;;;;;;;;;;24.82;57.92;97546.36;580541;244;67122;-74
2022/10/20 12:57:41;;;;;;;;;;;;;;;24.82;59.39;97554.42;580506;244;64580;-76
2022/10/20 13:00:23;;;;;;;;;;;;;;;24.84;58.35;97551.47;578984;244;66084;-73